Time;durP1;ratioP1;P1;durP2;ratioP2;P2;SDS_P1;SDS_P2;PMS_P1;PMS_P2;Temp;Humidity;BMP_temperature;BMP_pressure;BME280_temperature;BME280_humidity;BME280_pressure;Samples;Min_cycle;Max_cycle;Signal;HPM_P1;HPM_P2
2021/11/15 00:02:14;;;;;;;86.70;43.33;;;7.10;85.60;;;;;;5035588;28;20204;-86
2021/11/15 00:04:41;;;;;;;91.67;44.67;;;7.10;85.80;;;;;;5035930;28;20215;-86
2021/11/15 00:07:07;;;;;;;91.40;45.37;;;7.10;85.70;;;;;;5035604;28;20260;-86
2021/11/15 00:09:33;;;;;;;87.93;44.30;;;7.10;85.70;;;;;;5035666;28;20200;-86
2021/11/15 00:12:00;;;;;;;83.77;42.70;;;7.10;85.50;;;;;;5035441;28;20235;-86
2021/11/15 00:14:26;;;;;;;91.67;44.60;;;7.10;85.90;;;;;;5035378;28;20287;-86
2021/11/15 00:16:52;;;;;;;96.43;44.97;;;7.00;86.00;;;;;;5035402;28;20169;-86
2021/11/15 00:19:18;;;;;;;86.30;43.23;;;7.10;86.10;;;;;;5035384;28;20173;-86
2021/11/15 00:21:45;;;;;;;88.83;45.87;;;7.00;85.50;;;;;;5017389;28;20177;-86
2021/11/15 00:24:11;;;;;;;92.10;44.87;;;7.00;85.50;;;;;;5017597;28;20532;-86
2021/11/15 00:26:36;;;;;;;89.73;44.30;;;7.00;85.30;;;;;;5035272;28;20200;-86
2021/11/15 00:29:03;;;;;;;80.97;39.40;;;7.00;85.10;;;;;;5034178;28;20184;-86
2021/11/15 00:31:29;;;;;;;86.13;43.60;;;7.00;84.80;;;;;;5035440;28;20180;-86
2021/11/15 00:33:55;;;;;;;80.33;39.63;;;7.00;84.80;;;;;;5034920;28;20192;-85
2021/11/15 00:36:22;;;;;;;81.93;39.40;;;6.90;84.80;;;;;;5035049;28;20177;-85
2021/11/15 00:38:48;;;;;;;80.40;41.30;;;6.90;84.70;;;;;;5035011;28;20200;-86
2021/11/15 00:41:14;;;;;;;78.20;39.93;;;7.00;84.90;;;;;;5035307;28;20165;-86
2021/11/15 00:43:40;;;;;;;88.17;42.00;;;6.90;85.00;;;;;;5017167;28;20199;-85
2021/11/15 00:46:06;;;;;;;80.10;41.87;;;7.00;85.30;;;;;;5034895;28;20173;-86
2021/11/15 00:48:31;;;;;;;85.37;43.30;;;6.90;85.30;;;;;;5034871;28;20169;-86
2021/11/15 00:50:57;;;;;;;80.80;42.00;;;6.90;85.40;;;;;;5035071;28;20176;-85
2021/11/15 00:53:23;;;;;;;85.70;44.47;;;6.90;85.30;;;;;;5016811;28;20236;-86
2021/11/15 00:55:49;;;;;;;88.43;43.23;;;6.90;85.60;;;;;;5034675;28;20172;-86
2021/11/15 00:58:15;;;;;;;91.87;44.63;;;6.90;85.40;;;;;;5016863;28;20180;-86
2021/11/15 01:00:42;;;;;;;88.93;43.60;;;6.90;85.10;;;;;;5016836;28;20704;-86
2021/11/15 01:03:10;;;;;;;92.47;45.93;;;6.90;85.50;;;;;;5034444;28;20193;-86
2021/11/15 01:05:37;;;;;;;88.43;44.87;;;6.90;85.30;;;;;;5016799;28;20176;-86
2021/11/15 01:08:05;;;;;;;91.50;44.17;;;6.90;85.10;;;;;;5016727;28;20181;-86
2021/11/15 01:10:31;;;;;;;87.60;44.83;;;6.90;85.10;;;;;;5034424;28;20263;-86
2021/11/15 01:12:57;;;;;;;92.07;44.37;;;6.90;85.00;;;;;;5034223;28;20211;-86
2021/11/15 01:15:26;;;;;;;91.93;44.87;;;6.90;85.40;;;;;;5034353;28;20226;-86
2021/11/15 01:17:52;;;;;;;89.27;43.43;;;6.80;85.40;;;;;;5016547;28;20230;-86
2021/11/15 01:20:22;;;;;;;92.60;41.97;;;6.80;85.00;;;;;;5034205;28;20173;-86
2021/11/15 01:22:48;;;;;;;86.23;40.40;;;6.90;85.20;;;;;;5016328;28;20220;-86
2021/11/15 01:25:14;;;;;;;77.10;40.23;;;6.80;84.70;;;;;;5016406;28;20173;-85
2021/11/15 01:27:41;;;;;;;88.70;43.53;;;6.80;85.20;;;;;;5016366;28;20239;-86
2021/11/15 01:30:10;;;;;;;92.20;44.53;;;6.80;85.20;;;;;;5016337;28;20208;-86
2021/11/15 01:32:40;;;;;;;96.20;44.93;;;6.80;85.50;;;;;;5016172;28;20199;-86
2021/11/15 01:35:06;;;;;;;90.00;43.73;;;6.80;85.70;;;;;;5034008;28;20644;-86
2021/11/15 01:37:32;;;;;;;80.40;41.57;;;6.80;86.10;;;;;;5033968;28;20235;-86
2021/11/15 01:39:58;;;;;;;90.57;44.23;;;6.80;86.40;;;;;;5016051;28;20176;-86
2021/11/15 01:42:24;;;;;;;87.30;43.13;;;6.80;86.60;;;;;;5016281;28;20292;-86
2021/11/15 01:44:50;;;;;;;89.53;44.80;;;6.80;86.10;;;;;;5033890;28;20226;-86
2021/11/15 01:47:15;;;;;;;90.83;41.80;;;6.80;85.80;;;;;;5016435;28;20240;-86
2021/11/15 01:49:41;;;;;;;89.10;40.27;;;6.80;85.50;;;;;;5016039;28;20185;-86
2021/11/15 01:52:07;;;;;;;85.87;41.70;;;6.80;85.50;;;;;;5033582;28;20265;-86
2021/11/15 01:54:33;;;;;;;93.00;42.03;;;6.80;85.70;;;;;;5015795;28;20751;-86
2021/11/15 01:56:59;;;;;;;101.03;44.23;;;6.80;86.00;;;;;;5033649;28;20642;-86
2021/11/15 01:59:25;;;;;;;82.33;38.47;;;6.80;86.10;;;;;;5033533;28;20244;-86
2021/11/15 02:01:51;;;;;;;99.07;44.03;;;6.70;86.30;;;;;;5033666;28;20326;-86
2021/11/15 02:04:17;;;;;;;89.27;42.77;;;6.70;86.10;;;;;;5015769;28;20191;-86
2021/11/15 02:06:42;;;;;;;91.23;41.53;;;6.70;86.10;;;;;;5033408;28;20255;-85
2021/11/15 02:09:08;;;;;;;94.93;39.87;;;6.70;86.20;;;;;;5033401;28;20173;-86
2021/11/15 02:11:35;;;;;;;96.50;42.43;;;6.70;86.00;;;;;;5033358;28;20173;-85
2021/11/15 02:14:02;;;;;;;98.63;43.37;;;6.70;86.10;;;;;;5033171;28;20200;-86
2021/11/15 02:16:29;;;;;;;95.17;43.43;;;6.70;86.30;;;;;;5033625;28;20675;-86
2021/11/15 02:18:56;;;;;;;97.13;42.30;;;6.70;86.00;;;;;;5015622;28;20176;-86
2021/11/15 02:21:22;;;;;;;97.13;43.63;;;6.70;85.70;;;;;;5033530;28;20222;-86
2021/11/15 02:23:49;;;;;;;96.20;42.60;;;6.70;85.70;;;;;;5015348;28;20304;-86
2021/11/15 02:26:17;;;;;;;93.73;40.70;;;6.80;85.50;;;;;;5033159;28;20180;-85
2021/11/15 02:28:47;;;;;;;96.20;40.43;;;6.80;85.80;;;;;;5033099;28;20259;-86
2021/11/15 02:31:16;;;;;;;98.80;42.57;;;6.70;86.00;;;;;;5015411;28;20200;-86
2021/11/15 02:33:43;;;;;;;97.20;42.50;;;6.70;86.00;;;;;;5015564;28;20274;-85
2021/11/15 02:36:10;;;;;;;98.90;42.40;;;6.70;86.00;;;;;;5015448;28;20172;-85
2021/11/15 02:38:38;;;;;;;97.93;42.00;;;6.70;85.70;;;;;;5015649;28;20234;-86
2021/11/15 02:41:04;;;;;;;99.93;43.93;;;6.70;85.80;;;;;;5033023;28;20172;-86
2021/11/15 02:43:32;;;;;;;92.23;43.17;;;6.70;86.10;;;;;;5015231;28;20200;-85
2021/11/15 02:45:58;;;;;;;97.37;43.57;;;6.70;85.60;;;;;;5032969;28;20171;-85
2021/11/15 02:48:26;;;;;;;104.40;44.13;;;6.70;86.10;;;;;;5033125;28;20247;-85
2021/11/15 02:50:52;;;;;;;88.47;40.87;;;6.70;86.00;;;;;;5015339;28;20211;-85
2021/11/15 02:53:18;;;;;;;91.60;41.83;;;6.70;85.70;;;;;;5035414;28;20279;-86
2021/11/15 02:55:44;;;;;;;93.40;42.97;;;6.70;85.40;;;;;;5019235;28;20633;-86
2021/11/15 02:58:11;;;;;;;96.07;43.57;;;6.70;85.90;;;;;;5019167;28;20238;-86
2021/11/15 03:00:42;;;;;;;93.73;43.20;;;6.70;85.90;;;;;;5036845;28;20179;-86
2021/11/15 03:03:11;;;;;;;95.67;42.93;;;6.70;85.90;;;;;;5019093;28;20247;-86
2021/11/15 03:05:41;;;;;;;89.30;42.37;;;6.80;85.70;;;;;;5018909;28;20179;-86
2021/11/15 03:08:08;;;;;;;96.87;44.30;;;6.80;85.80;;;;;;5018971;28;20645;-86
2021/11/15 03:10:35;;;;;;;102.57;45.40;;;6.80;85.70;;;;;;5018924;28;20184;-86
2021/11/15 03:13:02;;;;;;;90.00;42.67;;;6.70;86.00;;;;;;5019288;28;20582;-86
2021/11/15 03:15:31;;;;;;;93.20;42.37;;;6.70;85.70;;;;;;5018834;28;20177;-85
2021/11/15 03:18:06;;;;;;;93.10;42.47;;;6.80;85.70;;;;;;5018766;28;20184;-85
2021/11/15 03:20:40;;;;;;;95.13;43.37;;;6.70;85.80;;;;;;5018855;28;20259;-86
2021/11/15 03:23:09;;;;;;;98.73;43.67;;;6.80;86.00;;;;;;5036286;28;20216;-86
2021/11/15 03:25:34;;;;;;;97.17;44.87;;;6.70;86.50;;;;;;5036420;28;20256;-86
2021/11/15 03:28:01;;;;;;;95.07;42.40;;;6.70;86.90;;;;;;5036331;28;20177;-86
2021/11/15 03:30:28;;;;;;;96.73;42.80;;;6.60;86.70;;;;;;5018546;28;20180;-86
2021/11/15 03:32:55;;;;;;;90.30;42.93;;;6.60;86.60;;;;;;5018380;28;20254;-86
2021/11/15 03:35:22;;;;;;;90.27;41.03;;;6.70;86.20;;;;;;5018580;28;20168;-86
2021/11/15 03:37:48;;;;;;;96.13;43.37;;;6.70;86.40;;;;;;5018517;28;20523;-86
2021/11/15 03:40:20;;;;;;;91.40;41.57;;;6.70;85.80;;;;;;5036162;28;20172;-86
2021/11/15 03:42:47;;;;;;;104.83;44.47;;;6.70;85.90;;;;;;5018347;28;20254;-86
2021/11/15 03:45:14;;;;;;;90.20;41.93;;;6.70;86.10;;;;;;5036052;28;20161;-86
2021/11/15 03:47:40;;;;;;;98.67;44.33;;;6.70;86.50;;;;;;5035933;28;20633;-86
2021/11/15 03:50:08;;;;;;;92.73;43.23;;;6.70;86.80;;;;;;5018194;28;20208;-86
2021/11/15 03:52:34;;;;;;;97.50;42.07;;;6.70;87.00;;;;;;5018136;28;20275;-86
2021/11/15 03:55:00;;;;;;;99.70;43.97;;;6.70;87.00;;;;;;5018345;28;20295;-86
2021/11/15 03:57:25;;;;;;;90.20;41.97;;;6.70;86.30;;;;;;5018144;28;20280;-86
2021/11/15 03:59:51;;;;;;;101.70;45.13;;;6.70;86.20;;;;;;5018075;28;20181;-85
2021/11/15 04:02:19;;;;;;;94.57;42.13;;;6.80;86.20;;;;;;5017949;28;20193;-85
2021/11/15 04:04:58;;;;;;;96.73;43.30;;;6.70;86.30;;;;;;5035615;28;20231;-85
2021/11/15 04:07:43;;;;;;;95.43;43.07;;;6.70;86.60;;;;;;5035628;28;20207;-86
2021/11/15 04:10:20;;;;;;;88.63;43.17;;;6.70;86.70;;;;;;5035643;28;20561;-86
2021/11/15 04:12:47;;;;;;;95.87;44.80;;;6.60;87.00;;;;;;5035453;28;20283;-85
2021/11/15 04:15:13;;;;;;;101.50;43.80;;;6.70;86.80;;;;;;5017731;28;20227;-86
2021/11/15 04:17:40;;;;;;;105.33;45.33;;;6.70;87.10;;;;;;5017670;28;20180;-86
2021/11/15 04:20:08;;;;;;;96.57;46.13;;;6.70;87.00;;;;;;5017648;28;20267;-86
2021/11/15 04:22:35;;;;;;;99.33;45.40;;;6.70;87.00;;;;;;5017644;28;20680;-86
2021/11/15 04:25:03;;;;;;;99.90;45.57;;;6.70;87.20;;;;;;5035321;28;20243;-86
2021/11/15 04:27:28;;;;;;;101.40;44.73;;;6.60;87.30;;;;;;5035518;28;20585;-86
2021/11/15 04:29:54;;;;;;;101.03;46.00;;;6.70;87.30;;;;;;5017559;28;20176;-86
2021/11/15 04:32:20;;;;;;;107.73;48.47;;;6.60;87.40;;;;;;5035093;28;20203;-85
2021/11/15 04:34:45;;;;;;;96.47;45.13;;;6.60;87.30;;;;;;5017299;28;20208;-85
2021/11/15 04:37:11;;;;;;;91.47;42.87;;;6.60;87.20;;;;;;5017270;28;20176;-85
2021/11/15 04:39:37;;;;;;;106.77;46.17;;;6.60;87.30;;;;;;5035166;28;20171;-85
2021/11/15 04:42:03;;;;;;;106.00;45.33;;;6.60;87.20;;;;;;5034964;28;20195;-85
2021/11/15 04:44:29;;;;;;;114.20;47.33;;;6.60;87.00;;;;;;5034935;28;20572;-85
2021/11/15 04:46:55;;;;;;;99.03;45.00;;;6.70;87.00;;;;;;5034892;28;20184;-85
2021/11/15 04:49:21;;;;;;;100.37;42.33;;;6.60;86.90;;;;;;5034820;28;20177;-85
2021/11/15 04:51:46;;;;;;;96.33;43.77;;;6.70;86.50;;;;;;5017016;28;20181;-85
2021/11/15 04:54:14;;;;;;;102.33;44.23;;;6.70;86.10;;;;;;5016896;28;20196;-85
2021/11/15 04:56:40;;;;;;;94.13;41.50;;;6.60;86.20;;;;;;5016942;28;20227;-85
2021/11/15 04:59:06;;;;;;;98.13;44.10;;;6.60;86.30;;;;;;5034938;28;20164;-85
2021/11/15 05:01:31;;;;;;;104.83;45.10;;;6.60;86.60;;;;;;5034870;28;20633;-85
2021/11/15 05:03:57;;;;;;;101.87;42.33;;;6.60;86.70;;;;;;5016744;28;20192;-85
2021/11/15 05:06:23;;;;;;;100.23;41.47;;;6.60;86.60;;;;;;5034535;28;20173;-85
2021/11/15 05:08:49;;;;;;;97.07;43.53;;;6.50;87.00;;;;;;5034507;28;20173;-85
2021/11/15 05:11:15;;;;;;;101.80;42.70;;;6.60;86.90;;;;;;5034414;28;20180;-85
2021/11/15 05:13:40;;;;;;;99.97;44.70;;;6.60;86.90;;;;;;5016518;28;20687;-85
2021/11/15 05:16:06;;;;;;;105.77;46.43;;;6.60;86.90;;;;;;5033900;28;20176;-85
2021/11/15 05:18:32;;;;;;;97.67;43.67;;;6.60;87.10;;;;;;5034331;28;20169;-86
2021/11/15 05:20:57;;;;;;;96.70;41.17;;;6.50;87.10;;;;;;5016511;28;20172;-86
2021/11/15 05:23:24;;;;;;;94.20;40.80;;;6.50;86.90;;;;;;5034023;28;20267;-85
2021/11/15 05:25:49;;;;;;;98.00;42.07;;;6.50;86.70;;;;;;5034441;28;20637;-85
2021/11/15 05:28:15;;;;;;;91.20;40.23;;;6.50;86.60;;;;;;5034430;28;20181;-85
2021/11/15 05:30:41;;;;;;;91.43;41.17;;;6.50;86.70;;;;;;5034080;28;20545;-85
2021/11/15 05:33:06;;;;;;;93.20;42.13;;;6.50;86.70;;;;;;5134073;22;20226;-88
2021/11/15 05:35:32;;;;;;;93.43;41.47;;;6.40;86.60;;;;;;5074205;28;20658;-88
2021/11/15 05:37:58;;;;;;;86.93;38.10;;;6.40;86.20;;;;;;5056371;28;20225;-88
2021/11/15 05:40:25;;;;;;;83.33;38.10;;;6.40;86.00;;;;;;5056302;28;20210;-88
2021/11/15 05:42:53;;;;;;;92.67;40.37;;;6.30;85.90;;;;;;5056130;28;20655;-87
2021/11/15 05:45:20;;;;;;;93.50;41.63;;;6.40;86.00;;;;;;5056156;28;20178;-88
2021/11/15 05:47:46;;;;;;;83.00;38.13;;;6.30;85.90;;;;;;5056072;28;20175;-87
2021/11/15 05:50:12;;;;;;;74.50;35.07;;;6.30;85.80;;;;;;5074097;28;20167;-88
2021/11/15 05:52:42;;;;;;;83.33;36.13;;;6.30;86.20;;;;;;5073797;28;20159;-88
2021/11/15 05:55:13;;;;;;;76.63;34.70;;;6.30;86.50;;;;;;5055964;28;20274;-88
2021/11/15 05:57:39;;;;;;;74.60;34.23;;;6.30;86.50;;;;;;5073975;28;20229;-88
2021/11/15 06:00:08;;;;;;;87.50;37.63;;;6.20;86.60;;;;;;5073819;28;20171;-88
2021/11/15 06:02:34;;;;;;;83.27;39.07;;;6.30;86.30;;;;;;5055922;28;20269;-88
2021/11/15 06:05:00;;;;;;;84.27;37.37;;;6.20;86.70;;;;;;5073925;28;20207;-88
2021/11/15 06:07:25;;;;;;;85.90;39.23;;;6.30;86.80;;;;;;5055802;28;20182;-88
2021/11/15 06:09:51;;;;;;;80.67;36.80;;;6.20;86.60;;;;;;5056224;28;20183;-88
2021/11/15 06:12:17;;;;;;;79.93;38.03;;;6.20;86.70;;;;;;5073943;28;20181;-88
2021/11/15 06:14:42;;;;;;;86.93;40.17;;;6.20;86.80;;;;;;5076232;28;20316;-88
2021/11/15 06:17:08;;;;;;;90.77;40.37;;;6.20;86.80;;;;;;5057910;28;20262;-88
2021/11/15 06:19:33;;;;;;;88.20;41.47;;;6.20;86.90;;;;;;5075299;28;20172;-88
2021/11/15 06:22:01;;;;;;;91.03;42.63;;;6.30;87.20;;;;;;5075323;28;20224;-88
2021/11/15 06:24:26;;;;;;;94.03;43.57;;;6.20;87.30;;;;;;5057056;28;20663;-88
2021/11/15 06:26:52;;;;;;;86.87;42.60;;;6.30;87.30;;;;;;5055770;28;20186;-88
2021/11/15 06:29:18;;;;;;;94.43;40.43;;;6.30;87.30;;;;;;5056793;28;20174;-88
2021/11/15 06:31:44;;;;;;;89.03;42.60;;;6.30;87.20;;;;;;5075537;28;20280;-87
2021/11/15 06:34:10;;;;;;;88.37;42.43;;;6.30;87.00;;;;;;5074766;28;20714;-88
2021/11/15 06:36:36;;;;;;;80.73;39.90;;;6.20;87.00;;;;;;5075334;28;20569;-87
2021/11/15 06:39:02;;;;;;;70.80;38.00;;;6.20;86.10;;;;;;5057131;28;20221;-88
2021/11/15 06:41:28;;;;;;;77.93;38.47;;;6.20;84.90;;;;;;5074810;28;20167;-88
2021/11/15 06:43:54;;;;;;;74.67;38.53;;;6.20;84.70;;;;;;5075184;28;20668;-88
2021/11/15 06:46:20;;;;;;;73.00;35.60;;;6.20;84.60;;;;;;5074971;28;20175;-88
2021/11/15 06:48:46;;;;;;;76.23;37.30;;;6.20;84.50;;;;;;5056641;28;20175;-88
2021/11/15 06:51:12;;;;;;;67.90;35.90;;;6.20;84.60;;;;;;5056666;28;20180;-88
2021/11/15 06:53:39;;;;;;;72.53;34.37;;;6.20;84.40;;;;;;5056293;28;20202;-88
2021/11/15 06:56:06;;;;;;;64.40;36.23;;;6.20;84.40;;;;;;5074679;28;20178;-88
2021/11/15 06:58:32;;;;;;;70.70;35.67;;;6.20;84.30;;;;;;5056245;28;20171;-88
2021/11/15 07:00:58;;;;;;;67.37;34.33;;;6.20;83.90;;;;;;5056449;28;20281;-88
2021/11/15 07:03:24;;;;;;;73.00;36.43;;;6.20;83.90;;;;;;5056435;28;20301;-88
2021/11/15 07:05:50;;;;;;;66.30;35.07;;;6.20;83.90;;;;;;5074373;28;20176;-88
2021/11/15 07:08:17;;;;;;;66.97;35.37;;;6.20;83.50;;;;;;5056430;28;20178;-88
2021/11/15 07:10:43;;;;;;;70.87;37.20;;;6.30;83.60;;;;;;5056662;28;20179;-88
2021/11/15 07:13:09;;;;;;;68.70;36.30;;;6.20;83.90;;;;;;5055880;28;20202;-88
2021/11/15 07:15:35;;;;;;;71.57;36.10;;;6.20;84.40;;;;;;5056261;28;20182;-88
2021/11/15 07:18:01;;;;;;;64.87;35.00;;;6.30;83.80;;;;;;5056184;28;20167;-88
2021/11/15 07:20:27;;;;;;;63.90;34.30;;;6.30;83.30;;;;;;5055801;28;20197;-87
2021/11/15 07:22:52;;;;;;;69.90;38.07;;;6.30;83.60;;;;;;5055601;28;20199;-87
2021/11/15 07:25:20;;;;;;;69.20;36.47;;;6.30;83.80;;;;;;5073191;28;20171;-87
2021/11/15 07:27:48;;;;;;;63.33;35.87;;;6.30;83.80;;;;;;5055936;28;20182;-88
2021/11/15 07:30:14;;;;;;;67.30;37.00;;;6.30;84.00;;;;;;5057625;28;20172;-89
2021/11/15 07:32:40;;;;;;;65.77;34.10;;;6.30;84.50;;;;;;5074741;28;20183;-88
2021/11/15 07:35:06;;;;;;;66.70;34.10;;;6.30;85.00;;;;;;5055516;28;20195;-88
2021/11/15 07:37:32;;;;;;;62.50;33.93;;;6.30;84.20;;;;;;5055650;28;20184;-87
2021/11/15 07:39:58;;;;;;;61.43;34.50;;;6.30;83.80;;;;;;5058714;28;20175;-88
2021/11/15 07:42:23;;;;;;;61.80;33.97;;;6.30;84.20;;;;;;5058959;28;20179;-87
2021/11/15 07:44:49;;;;;;;65.37;35.27;;;6.30;84.40;;;;;;5077258;28;20199;-88
2021/11/15 07:47:16;;;;;;;60.03;33.57;;;6.40;83.80;;;;;;5077932;28;20259;-88
2021/11/15 07:49:43;;;;;;;65.10;34.17;;;6.40;84.10;;;;;;5059757;28;20241;-88
2021/11/15 07:52:09;;;;;;;61.70;34.50;;;6.40;84.00;;;;;;5077103;28;20175;-88
2021/11/15 07:54:35;;;;;;;63.60;34.73;;;6.40;83.90;;;;;;5076869;28;20294;-88
2021/11/15 07:57:01;;;;;;;63.10;34.37;;;6.40;83.70;;;;;;5059266;28;20167;-88
2021/11/15 07:59:27;;;;;;;55.30;33.40;;;6.40;83.40;;;;;;5078258;28;20167;-87
2021/11/15 08:01:53;;;;;;;60.73;34.10;;;6.40;83.60;;;;;;5059681;28;20266;-87
2021/11/15 08:04:19;;;;;;;61.57;34.30;;;6.50;83.50;;;;;;5077215;28;20657;-88
2021/11/15 08:06:44;;;;;;;68.67;36.23;;;6.50;83.70;;;;;;5059399;28;20194;-88
2021/11/15 08:09:11;;;;;;;61.77;33.63;;;6.50;83.70;;;;;;5077741;28;20175;-88
2021/11/15 08:11:37;;;;;;;62.67;34.63;;;6.50;83.60;;;;;;5060698;28;20175;-87
2021/11/15 08:14:04;;;;;;;61.63;33.67;;;6.50;83.50;;;;;;5059687;28;20206;-88
2021/11/15 08:16:30;;;;;;;61.97;33.77;;;6.60;83.50;;;;;;5059507;28;20175;-87
2021/11/15 08:18:56;;;;;;;56.00;33.40;;;6.60;82.80;;;;;;5060565;28;20175;-88
2021/11/15 08:21:23;;;;;;;62.00;32.57;;;6.60;82.60;;;;;;5060188;28;20248;-87
2021/11/15 08:23:50;;;;;;;57.77;34.17;;;6.60;82.90;;;;;;5060074;28;20214;-87
2021/11/15 08:26:26;;;;;;;57.37;33.43;;;6.70;83.20;;;;;;5078326;28;20258;-87
2021/11/15 08:28:52;;;;;;;61.60;34.83;;;6.70;83.10;;;;;;5059695;28;20166;-87
2021/11/15 08:31:18;;;;;;;60.07;33.17;;;6.60;82.40;;;;;;5077647;28;20175;-87
2021/11/15 08:33:43;;;;;;;53.30;31.97;;;6.70;82.80;;;;;;5058954;28;20317;-87
2021/11/15 08:36:10;;;;;;;50.87;30.23;;;6.70;82.20;;;;;;5059328;28;20590;-87
2021/11/15 08:38:52;;;;;;;53.17;31.30;;;6.80;81.70;;;;;;5058864;28;20267;-87
2021/11/15 08:41:27;;;;;;;61.03;33.73;;;6.80;82.10;;;;;;5076607;28;20151;-88
2021/11/15 08:43:56;;;;;;;60.87;31.80;;;6.80;82.50;;;;;;5058533;28;20226;-87
2021/11/15 08:46:24;;;;;;;55.90;33.27;;;6.80;82.70;;;;;;5058164;28;20221;-87
2021/11/15 08:48:49;;;;;;;57.90;32.40;;;6.90;82.30;;;;;;5076554;28;20231;-87
2021/11/15 08:51:18;;;;;;;57.20;30.40;;;6.90;82.20;;;;;;5075225;28;20171;-88
2021/11/15 08:53:45;;;;;;;55.07;32.40;;;6.80;81.60;;;;;;5058641;28;20336;-88
2021/11/15 08:56:10;;;;;;;53.97;32.43;;;6.90;80.50;;;;;;5058739;28;20317;-88
2021/11/15 08:58:37;;;;;;;58.93;34.03;;;6.90;81.30;;;;;;5058874;28;20231;-87
2021/11/15 09:01:04;;;;;;;58.17;33.13;;;6.90;81.80;;;;;;5076487;28;20163;-87
2021/11/15 09:03:30;;;;;;;57.20;32.53;;;6.90;82.20;;;;;;5058452;28;20206;-87
2021/11/15 09:05:56;;;;;;;58.53;32.60;;;6.90;81.80;;;;;;5058211;28;20266;-88
2021/11/15 09:08:22;;;;;;;56.10;32.40;;;6.90;81.10;;;;;;5075986;28;20203;-87
2021/11/15 09:10:49;;;;;;;56.20;33.03;;;6.80;80.10;;;;;;5058256;28;20171;-88
2021/11/15 09:13:15;;;;;;;55.27;32.50;;;6.90;80.50;;;;;;5058002;28;20249;-87
2021/11/15 09:15:41;;;;;;;53.57;32.20;;;6.90;80.50;;;;;;5076480;28;20193;-87
2021/11/15 09:18:07;;;;;;;53.07;31.63;;;6.90;80.70;;;;;;5058276;28;20262;-88
2021/11/15 09:20:33;;;;;;;58.17;34.63;;;6.90;80.90;;;;;;5075763;28;20224;-86
2021/11/15 09:23:00;;;;;;;56.17;33.53;;;6.90;80.60;;;;;;5057811;28;20195;-87
2021/11/15 09:25:26;;;;;;;61.57;33.67;;;6.90;80.40;;;;;;5057480;28;20179;-86
2021/11/15 09:27:51;;;;;;;60.30;34.50;;;6.90;80.50;;;;;;5075817;28;20171;-86
2021/11/15 09:30:17;;;;;;;56.67;33.33;;;6.90;80.60;;;;;;5058880;28;20203;-87
2021/11/15 09:32:44;;;;;;;55.67;33.17;;;7.00;81.20;;;;;;5057915;28;20168;-87
2021/11/15 09:35:11;;;;;;;59.37;33.07;;;6.90;81.20;;;;;;5075925;28;20193;-87
2021/11/15 09:37:37;;;;;;;59.50;36.00;;;6.90;81.50;;;;;;5058212;28;20238;-86
2021/11/15 09:40:06;;;;;;;64.73;34.33;;;6.90;81.90;;;;;;5057085;28;20643;-86
2021/11/15 09:42:31;;;;;;;59.63;34.07;;;6.90;81.30;;;;;;5057662;28;20167;-88
2021/11/15 09:44:57;;;;;;;63.93;35.33;;;6.90;81.50;;;;;;5075227;28;20245;-87
2021/11/15 09:47:23;;;;;;;64.23;36.17;;;6.90;81.30;;;;;;5075492;28;20178;-87
2021/11/15 09:49:50;;;;;;;59.27;34.87;;;6.90;81.30;;;;;;5057434;28;20183;-88
2021/11/15 09:52:15;;;;;;;62.70;32.70;;;6.90;81.60;;;;;;5057197;28;20678;-87
2021/11/15 09:54:43;;;;;;;61.03;35.13;;;6.90;81.30;;;;;;5057389;28;20231;-88
2021/11/15 09:57:11;;;;;;;62.60;34.10;;;6.90;82.10;;;;;;5056705;28;20172;-87
2021/11/15 09:59:37;;;;;;;69.67;36.33;;;6.90;81.90;;;;;;5056139;28;20182;-87
2021/11/15 10:02:03;;;;;;;66.27;37.03;;;6.80;81.90;;;;;;5056079;28;20168;-87
2021/11/15 10:04:29;;;;;;;59.77;33.90;;;6.80;81.80;;;;;;5073937;28;20191;-87
2021/11/15 10:06:58;;;;;;;65.57;35.03;;;6.80;81.80;;;;;;5074300;28;20309;-87
2021/11/15 10:09:35;;;;;;;60.97;34.60;;;6.80;81.50;;;;;;5074140;28;20761;-87
2021/11/15 10:12:13;;;;;;;61.70;35.67;;;6.80;81.90;;;;;;5073894;28;20237;-87
2021/11/15 10:14:58;;;;;;;69.77;37.33;;;6.80;81.50;;;;;;5073737;28;20199;-87
2021/11/15 10:17:42;;;;;;;58.97;34.97;;;6.80;81.50;;;;;;5056271;28;20607;-87
2021/11/15 10:20:09;;;;;;;63.47;34.93;;;6.80;81.60;;;;;;5056149;28;20254;-87
2021/11/15 10:22:35;;;;;;;68.23;33.57;;;6.80;81.40;;;;;;5056255;28;20171;-86
2021/11/15 10:25:00;;;;;;;65.47;34.97;;;6.80;81.80;;;;;;5073686;28;20178;-86
2021/11/15 10:27:28;;;;;;;59.17;34.83;;;6.90;81.70;;;;;;5056027;28;20252;-87
2021/11/15 10:29:54;;;;;;;63.50;37.93;;;6.80;81.00;;;;;;5055739;28;20650;-87
2021/11/15 10:32:28;;;;;;;60.47;35.00;;;6.90;81.20;;;;;;5055777;28;20237;-86
2021/11/15 10:34:59;;;;;;;58.63;34.90;;;6.90;80.80;;;;;;5055708;28;20210;-87
2021/11/15 10:37:32;;;;;;;53.10;33.23;;;6.90;80.70;;;;;;5055720;28;20534;-87
2021/11/15 10:40:08;;;;;;;53.03;32.93;;;6.90;80.60;;;;;;5056043;28;20160;-86
2021/11/15 10:42:43;;;;;;;55.37;32.53;;;6.90;80.60;;;;;;5074144;28;20167;-87
2021/11/15 10:45:19;;;;;;;58.97;34.60;;;6.90;80.70;;;;;;5055943;28;20520;-86
2021/11/15 10:47:50;;;;;;;55.30;34.20;;;7.00;80.70;;;;;;5073647;28;20648;-87
2021/11/15 10:50:32;;;;;;;60.17;34.40;;;7.00;80.70;;;;;;5073901;28;20156;-87
2021/11/15 10:53:06;;;;;;;57.97;32.27;;;7.00;80.20;;;;;;5055748;28;20569;-86
2021/11/15 10:55:36;;;;;;;55.83;32.43;;;7.00;80.30;;;;;;5074280;28;20233;-87
2021/11/15 10:58:10;;;;;;;57.33;33.80;;;7.00;80.50;;;;;;5074172;28;20147;-87
2021/11/15 11:00:39;;;;;;;58.23;33.67;;;7.00;80.30;;;;;;5073779;28;20163;-87
2021/11/15 11:03:17;;;;;;;60.23;34.30;;;7.00;80.20;;;;;;5073559;28;20765;-87
2021/11/15 11:05:46;;;;;;;60.10;34.87;;;7.00;80.60;;;;;;5055863;28;20163;-87
2021/11/15 11:08:15;;;;;;;57.30;35.13;;;7.00;81.10;;;;;;5055481;28;20176;-87
2021/11/15 11:11:25;;;;;;;56.00;34.47;;;7.00;80.90;;;;;;5073857;28;20541;-87
2021/11/15 11:13:59;;;;;;;57.10;33.53;;;7.10;81.20;;;;;;4997184;28;20215;-86
2021/11/15 11:16:47;;;;;;;60.17;35.27;;;7.10;80.80;;;;;;5053417;28;20190;-87
2021/11/15 11:24:18;;;;;;;52.07;32.77;;;7.00;80.10;;;;;;5077726;28;20230;-86
2021/11/15 11:26:54;;;;;;;56.30;32.73;;;7.10;80.60;;;;;;5059420;28;20194;-86
2021/11/15 11:29:24;;;;;;;55.63;34.70;;;7.10;80.30;;;;;;5077298;28;20178;-87
2021/11/15 11:31:53;;;;;;;50.67;33.67;;;7.10;80.60;;;;;;5077206;28;20176;-88
2021/11/15 11:34:20;;;;;;;89.20;52.47;;;7.10;80.60;;;;;;5058664;28;20309;-86
2021/11/15 11:36:46;;;;;;;57.90;35.17;;;7.10;79.70;;;;;;5058328;28;20167;-86
2021/11/15 11:39:13;;;;;;;58.87;34.43;;;7.10;80.20;;;;;;5058375;28;20651;-86
2021/11/15 11:41:42;;;;;;;53.40;32.70;;;7.10;79.50;;;;;;5058352;28;20171;-86
2021/11/15 11:44:09;;;;;;;54.90;33.40;;;7.10;79.90;;;;;;5076332;28;20218;-86
2021/11/15 11:46:36;;;;;;;55.00;33.60;;;7.10;80.00;;;;;;5076091;28;20174;-86
2021/11/15 11:49:04;;;;;;;54.90;32.93;;;7.10;80.60;;;;;;5058089;28;20183;-86
2021/11/15 11:51:30;;;;;;;58.33;33.93;;;7.10;80.80;;;;;;5058108;28;20656;-86
2021/11/15 11:54:06;;;;;;;57.33;33.37;;;7.10;80.50;;;;;;5075849;28;20206;-86
2021/11/15 11:56:32;;;;;;;54.47;33.23;;;7.10;81.30;;;;;;5058183;28;20163;-86
2021/11/15 11:59:19;;;;;;;54.70;33.93;;;7.10;81.20;;;;;;5058084;28;20536;-86
2021/11/15 12:02:13;;;;;;;58.83;33.23;;;7.10;82.00;;;;;;5057973;28;20171;-86
2021/11/15 12:04:53;;;;;;;54.43;32.30;;;7.10;80.50;;;;;;5073524;28;20209;-86
2021/11/15 12:07:28;;;;;;;52.53;31.93;;;7.10;80.20;;;;;;5058075;28;20179;-86
2021/11/15 12:09:55;;;;;;;54.13;30.67;;;7.10;80.40;;;;;;5058055;28;20220;-86
2021/11/15 12:12:21;;;;;;;52.93;31.23;;;7.10;80.40;;;;;;5058004;28;20217;-86
2021/11/15 12:14:47;;;;;;;48.77;29.90;;;7.00;80.40;;;;;;5057387;28;20207;-87
2021/11/15 12:17:17;;;;;;;55.30;33.30;;;7.00;79.80;;;;;;5057650;28;20175;-86
2021/11/15 12:19:52;;;;;;;54.27;32.13;;;7.10;79.70;;;;;;5075713;28;20167;-86
2021/11/15 12:22:23;;;;;;;50.47;31.07;;;7.10;80.00;;;;;;5075630;28;20167;-86
2021/11/15 12:25:09;;;;;;;52.77;31.33;;;7.10;79.60;;;;;;5056181;28;20214;-86
2021/11/15 12:27:54;;;;;;;47.77;30.67;;;7.10;80.10;;;;;;5057382;28;20179;-86
2021/11/15 12:30:25;;;;;;;63.13;37.87;;;7.10;80.90;;;;;;5057631;28;20187;-86
2021/11/15 12:33:29;;;;;;;50.03;30.53;;;7.10;80.10;;;;;;5075139;28;20270;-85
2021/11/15 12:36:10;;;;;;;51.30;31.03;;;7.00;79.70;;;;;;5074804;28;20209;-86
2021/11/15 12:38:49;;;;;;;53.03;31.17;;;7.00;80.00;;;;;;5057433;28;20171;-86
2021/11/15 12:41:25;;;;;;;49.20;30.40;;;7.00;80.00;;;;;;5057327;28;20167;-87
2021/11/15 12:44:06;;;;;;;54.40;31.30;;;7.00;81.50;;;;;;5075308;28;20193;-86
2021/11/15 12:47:12;;;;;;;48.97;30.23;;;7.00;80.70;;;;;;5075422;28;20524;-86